Archer, Illinois
Current Conditions -  °F | °C
As of 4:52 PM on Friday 31 Oct 2014 (Local Time) from KSPI Reporting Station
Scattered Clouds Scattered Clouds  
Wind Chill: 36°   Ceiling: Unl
Heat Index: 44°   Visibility: 10mi
Dew Point: 20°   Wind: 18mph
Humidity: 38%   Direction: 350°N
Pressure: 30.3"   Gusts: 31mph
Location:  39.854°N, 89.6295°W
Report Text: KSPI 312152Z 35016G27KT 10SM SCT060 07/M07 A3030 RMK AO2 PK WND 34030/2115 SLP262 T00671067
Loading
Personal Weather Stations






























Interactive Weather Map
Tropical Storm Tracking
New forecast layout! Learn more

10-Day Weather Forecast

Advertisements
Track Severe Weather on mobile